createdAt,value
2018-05-12T00:02:19.077Z,99.90
2018-05-12T00:04:48.108Z,99.90
2018-05-12T00:07:16.358Z,99.90
2018-05-12T00:09:44.618Z,99.90
2018-05-12T00:12:13.664Z,99.90
2018-05-12T00:14:41.916Z,99.90
2018-05-12T00:17:10.167Z,99.90
2018-05-12T00:19:39.392Z,99.90
2018-05-12T00:22:07.671Z,99.90
2018-05-12T00:24:37.043Z,99.90
2018-05-12T00:27:05.313Z,99.90
2018-05-12T00:29:34.363Z,99.90
2018-05-12T00:32:02.610Z,99.90
2018-05-12T00:34:31.023Z,99.90
2018-05-12T00:36:59.305Z,99.90
2018-05-12T00:39:27.578Z,99.90
2018-05-12T00:41:55.850Z,99.90
2018-05-12T00:44:24.150Z,99.90
2018-05-12T00:46:52.393Z,99.90
2018-05-12T00:49:20.658Z,99.90
2018-05-12T00:51:48.914Z,99.90
2018-05-12T00:54:17.175Z,99.90
2018-05-12T00:56:46.202Z,99.90
2018-05-12T00:59:14.474Z,99.90
2018-05-12T01:01:42.724Z,99.90
2018-05-12T01:04:11.766Z,99.90
2018-05-12T01:06:40.010Z,99.90
2018-05-12T01:09:08.268Z,99.90
2018-05-12T01:11:37.289Z,99.90
2018-05-12T01:14:05.536Z,99.90
2018-05-12T01:16:34.568Z,99.90
2018-05-12T01:19:03.752Z,99.90
2018-05-12T01:21:32.047Z,99.90
2018-05-12T01:24:00.296Z,99.90
2018-05-12T01:26:28.606Z,99.90
2018-05-12T01:28:56.904Z,99.90
2018-05-12T01:31:25.143Z,99.90
2018-05-12T01:33:53.423Z,99.90
2018-05-12T01:36:21.683Z,99.90
2018-05-12T01:38:49.945Z,99.90
2018-05-12T01:41:18.986Z,99.90
2018-05-12T01:43:47.238Z,99.90
2018-05-12T01:46:15.492Z,99.90
2018-05-12T01:48:43.743Z,99.90
2018-05-12T01:51:11.992Z,99.90
2018-05-12T01:53:40.252Z,99.90
2018-05-12T01:56:08.503Z,99.90
2018-05-12T01:58:36.746Z,99.90
2018-05-12T02:01:05.762Z,99.90
2018-05-12T02:03:34.060Z,99.90
2018-05-12T02:06:02.313Z,99.90
2018-05-12T02:08:30.564Z,99.90
2018-05-12T02:10:59.600Z,99.90
2018-05-12T02:13:27.856Z,99.90
2018-05-12T02:15:56.118Z,99.90
2018-05-12T02:18:25.171Z,99.90
2018-05-12T02:20:53.451Z,99.90
2018-05-12T02:23:21.673Z,99.90
2018-05-12T02:25:50.679Z,99.90
2018-05-12T02:28:18.943Z,99.90
2018-05-12T02:30:47.952Z,99.90
2018-05-12T02:33:16.209Z,99.90
2018-05-12T02:35:45.225Z,99.90
2018-05-12T02:38:13.478Z,99.90
2018-05-12T02:40:42.503Z,99.90
2018-05-12T02:43:10.759Z,99.90
2018-05-12T02:45:39.011Z,99.90
2018-05-12T02:48:08.039Z,99.90
2018-05-12T02:50:36.308Z,99.90
2018-05-12T02:53:04.574Z,99.90
2018-05-12T02:55:32.820Z,99.90
2018-05-12T02:58:01.109Z,99.90
2018-05-12T03:00:29.367Z,99.90
2018-05-12T03:02:57.604Z,99.90
2018-05-12T03:05:25.880Z,99.90
2018-05-12T03:07:54.150Z,99.90
2018-05-12T03:10:22.421Z,99.90
2018-05-12T03:12:50.669Z,99.90
2018-05-12T03:15:19.699Z,99.90
2018-05-12T03:17:47.954Z,99.90
2018-05-12T03:20:16.225Z,99.90
2018-05-12T03:22:45.248Z,99.90
2018-05-12T03:25:13.498Z,99.90
2018-05-12T03:27:41.746Z,99.90
2018-05-12T03:30:10.773Z,99.90
2018-05-12T03:32:39.038Z,99.90
2018-05-12T03:35:08.692Z,99.90
2018-05-12T03:37:36.961Z,99.90
2018-05-12T03:40:05.219Z,99.90
2018-05-12T03:42:33.491Z,99.90
2018-05-12T03:45:01.740Z,99.90
2018-05-12T03:47:30.775Z,99.90
2018-05-12T03:49:59.142Z,99.90
2018-05-12T03:52:27.402Z,99.90
2018-05-12T03:54:55.710Z,99.90
2018-05-12T03:57:23.964Z,99.90
2018-05-12T03:59:52.228Z,99.90
2018-05-12T04:02:20.479Z,99.90
2018-05-12T04:05:01.462Z,99.90
2018-05-12T04:07:42.811Z,99.90
2018-05-12T04:10:23.274Z,99.90
2018-05-12T04:12:51.854Z,99.90
2018-05-12T04:15:20.096Z,99.90
2018-05-12T04:17:48.408Z,99.90
2018-05-12T04:20:16.692Z,99.90
2018-05-12T04:22:44.967Z,99.90
2018-05-12T04:25:13.245Z,99.90
2018-05-12T04:27:41.495Z,99.90
2018-05-12T04:30:09.796Z,99.90
2018-05-12T04:32:38.069Z,99.90
2018-05-12T04:35:06.348Z,99.90
2018-05-12T04:37:34.614Z,99.90
2018-05-12T04:40:02.885Z,99.90
2018-05-12T04:42:31.160Z,99.90
2018-05-12T04:44:59.418Z,99.90
2018-05-12T04:47:27.678Z,99.90
2018-05-12T04:49:55.947Z,99.90
2018-05-12T04:52:24.207Z,99.90
2018-05-12T04:54:53.232Z,99.90
2018-05-12T04:57:21.497Z,99.90
2018-05-12T04:59:50.686Z,99.90
2018-05-12T05:02:19.725Z,99.90
2018-05-12T05:04:48.004Z,99.90
2018-05-12T05:07:16.268Z,99.90
2018-05-12T05:09:44.575Z,99.90
2018-05-12T05:12:12.893Z,99.90
2018-05-12T05:14:41.901Z,99.90
2018-05-12T05:17:10.164Z,99.90
2018-05-12T05:19:38.434Z,99.90
2018-05-12T05:22:06.712Z,99.90
2018-05-12T05:24:34.988Z,99.90
2018-05-12T05:27:03.235Z,99.90
2018-05-12T05:29:31.545Z,99.90
2018-05-12T05:32:00.564Z,99.90
2018-05-12T05:34:28.837Z,99.90
2018-05-12T05:36:57.109Z,99.90
2018-05-12T05:39:25.383Z,99.90
2018-05-12T05:41:53.627Z,99.90
2018-05-12T05:44:22.659Z,99.90
2018-05-12T05:46:50.914Z,99.90
2018-05-12T05:49:19.180Z,99.90
2018-05-12T05:51:48.198Z,99.90
2018-05-12T05:54:16.467Z,99.90
2018-05-12T05:56:44.712Z,99.90
2018-05-12T05:59:13.733Z,99.90
2018-05-12T06:01:41.989Z,99.90
2018-05-12T06:04:11.004Z,99.90
2018-05-12T06:06:39.281Z,99.90
2018-05-12T06:09:07.551Z,99.90
2018-05-12T06:11:35.823Z,99.90
2018-05-12T06:14:04.080Z,99.90
2018-05-12T06:16:33.109Z,99.90
2018-05-12T06:19:01.363Z,99.90
2018-05-12T06:21:29.621Z,99.90
2018-05-12T06:23:57.877Z,99.90
2018-05-12T06:26:26.142Z,99.90
2018-05-12T06:28:54.396Z,99.90
2018-05-12T06:31:22.681Z,99.90
2018-05-12T06:33:50.935Z,99.90
2018-05-12T06:36:19.199Z,99.90
2018-05-12T06:38:47.461Z,99.90
2018-05-12T06:41:16.503Z,99.90
2018-05-12T06:43:44.773Z,99.90
2018-05-12T06:46:13.037Z,99.90
2018-05-12T06:48:41.341Z,99.90
2018-05-12T06:51:09.621Z,99.90
2018-05-12T06:53:37.880Z,99.90
2018-05-12T06:56:06.271Z,99.90
2018-05-12T06:58:34.523Z,99.60
2018-05-12T07:01:02.805Z,99.90
2018-05-12T07:03:31.065Z,99.90
2018-05-12T07:05:59.328Z,99.90
2018-05-12T07:08:27.673Z,99.90
2018-05-12T07:10:55.928Z,99.90
2018-05-12T07:13:24.217Z,99.90
2018-05-12T07:15:52.477Z,99.90
2018-05-12T07:18:20.774Z,99.10
2018-05-12T07:20:49.036Z,97.90
2018-05-12T07:23:17.328Z,97.60
2018-05-12T07:25:45.682Z,96.90
2018-05-12T07:28:13.937Z,97.20
2018-05-12T07:30:42.222Z,96.40
2018-05-12T07:33:10.513Z,95.50
2018-05-12T07:35:38.819Z,97.00
2018-05-12T07:38:07.864Z,94.70
2018-05-12T07:40:36.243Z,94.70
2018-05-12T07:43:04.503Z,94.60
2018-05-12T07:45:32.965Z,95.00
2018-05-12T07:48:01.221Z,96.70
2018-05-12T07:50:29.502Z,98.80
2018-05-12T07:52:57.759Z,99.90
2018-05-12T07:55:26.040Z,99.90
2018-05-12T07:57:54.316Z,99.90
2018-05-12T08:00:22.574Z,97.90
2018-05-12T08:02:50.820Z,95.70
2018-05-12T08:05:19.105Z,93.40
2018-05-12T08:07:47.362Z,91.20
2018-05-12T08:10:15.623Z,90.80
2018-05-12T08:12:44.723Z,90.20
2018-05-12T08:15:12.917Z,90.10
2018-05-12T08:17:41.186Z,91.60
2018-05-12T08:20:09.448Z,92.30
2018-05-12T08:22:37.689Z,90.70
2018-05-12T08:25:06.722Z,92.90
2018-05-12T08:27:34.995Z,92.90
2018-05-12T08:30:03.261Z,91.20
2018-05-12T08:32:31.640Z,86.50
2018-05-12T08:35:01.595Z,93.50
2018-05-12T08:37:29.856Z,93.50
2018-05-12T08:39:58.178Z,95.80
2018-05-12T08:42:26.453Z,97.30
2018-05-12T08:44:54.711Z,97.50
2018-05-12T08:47:23.032Z,96.30
2018-05-12T08:49:51.309Z,92.00
2018-05-12T08:52:19.611Z,88.20
2018-05-12T08:54:47.862Z,92.60
2018-05-12T08:57:16.882Z,94.30
2018-05-12T08:59:45.198Z,94.30
2018-05-12T09:02:13.465Z,94.10
2018-05-12T09:04:41.722Z,93.30
2018-05-12T09:07:10.099Z,92.90
2018-05-12T09:09:38.339Z,91.70
2018-05-12T09:12:07.383Z,89.70
2018-05-12T09:14:35.775Z,89.60
2018-05-12T09:17:04.020Z,83.40
2018-05-12T09:19:32.349Z,82.80
2018-05-12T09:22:01.415Z,82.20
2018-05-12T09:24:29.712Z,82.20
2018-05-12T09:26:58.752Z,85.40
2018-05-12T09:29:27.040Z,85.30
2018-05-12T09:31:55.313Z,88.50
2018-05-12T09:34:23.600Z,88.50
2018-05-12T09:36:51.904Z,81.50
2018-05-12T09:39:20.222Z,80.10
2018-05-12T09:41:48.600Z,78.50
2018-05-12T09:44:17.038Z,77.70
2018-05-12T09:46:45.349Z,78.30
2018-05-12T09:49:14.374Z,74.30
2018-05-12T09:51:43.750Z,75.00
2018-05-12T09:54:12.056Z,74.10
2018-05-12T09:59:15.184Z,77.10
2018-05-12T10:01:43.449Z,76.60
2018-05-12T10:04:11.702Z,73.50
2018-05-12T10:06:39.976Z,67.60
2018-05-12T10:09:08.257Z,64.10
2018-05-12T10:11:36.527Z,57.80
2018-05-12T10:14:05.961Z,58.60
2018-05-12T10:16:34.221Z,57.60
2018-05-12T10:19:02.511Z,55.00
2018-05-12T10:21:30.758Z,53.90
2018-05-12T10:23:59.103Z,55.30
2018-05-12T10:26:29.090Z,52.20
2018-05-12T10:28:58.262Z,55.10
2018-05-12T10:31:26.521Z,55.00
2018-05-12T10:33:54.768Z,53.40
2018-05-12T10:36:23.916Z,48.30
2018-05-12T10:38:52.327Z,48.40
2018-05-12T10:41:20.570Z,48.80
2018-05-12T10:43:48.843Z,50.70
2018-05-12T10:46:17.087Z,45.70
2018-05-12T10:48:45.404Z,45.40
2018-05-12T10:51:13.678Z,43.10
2018-05-12T10:53:41.953Z,40.90
2018-05-12T10:56:10.239Z,42.20
2018-05-12T10:58:38.505Z,42.40
2018-05-12T11:01:06.777Z,43.80
2018-05-12T11:03:35.019Z,42.60
2018-05-12T11:06:03.271Z,42.30
2018-05-12T11:08:33.305Z,40.80
2018-05-12T11:11:01.589Z,40.80
2018-05-12T11:13:29.872Z,41.10
2018-05-12T11:15:58.151Z,41.10
2018-05-12T11:18:27.288Z,40.20
2018-05-12T11:20:55.544Z,40.10
2018-05-12T11:23:23.820Z,38.10
2018-05-12T11:25:52.121Z,39.40
2018-05-12T11:28:20.396Z,40.00
2018-05-12T11:30:48.688Z,39.10
2018-05-12T11:33:17.745Z,41.10
2018-05-12T11:35:46.017Z,41.10
2018-05-12T11:38:14.361Z,42.00
2018-05-12T11:40:43.349Z,41.00
2018-05-12T11:43:11.610Z,40.80
2018-05-12T11:45:40.689Z,41.40
2018-05-12T11:48:10.413Z,42.20
2018-05-12T11:50:39.440Z,42.60
2018-05-12T11:53:07.699Z,42.00
2018-05-12T11:55:35.962Z,43.10
2018-05-12T11:58:04.989Z,43.90
2018-05-12T12:00:33.284Z,43.70
2018-05-12T12:03:01.539Z,43.80
2018-05-12T12:05:29.829Z,44.00
2018-05-12T12:07:58.125Z,42.50
2018-05-12T12:10:26.375Z,42.30
2018-05-12T12:12:54.904Z,43.30
2018-05-12T12:15:23.163Z,42.10
2018-05-12T12:17:51.480Z,42.40
2018-05-12T12:20:19.694Z,43.20
2018-05-12T12:22:48.077Z,43.70
2018-05-12T12:25:17.223Z,44.10
2018-05-12T12:27:46.292Z,44.00
2018-05-12T12:30:16.039Z,42.20
2018-05-12T12:32:45.388Z,42.20
2018-05-12T12:35:13.705Z,41.50
2018-05-12T12:37:42.760Z,42.90
2018-05-12T12:40:12.148Z,42.80
2018-05-12T12:42:40.390Z,42.80
2018-05-12T12:45:08.891Z,43.30
2018-05-12T12:47:37.098Z,42.20
2018-05-12T12:50:05.379Z,42.90
2018-05-12T12:52:34.541Z,40.80
2018-05-12T12:55:02.817Z,41.10
2018-05-12T12:57:31.104Z,39.40
2018-05-12T12:59:59.381Z,39.50
2018-05-12T13:02:27.713Z,39.10
2018-05-12T13:04:56.861Z,38.70
2018-05-12T13:07:25.828Z,38.70
2018-05-12T13:09:54.147Z,38.60
2018-05-12T13:12:22.432Z,38.80
2018-05-12T13:14:50.757Z,37.40
2018-05-12T13:17:19.058Z,37.60
2018-05-12T13:19:48.247Z,39.20
2018-05-12T13:22:16.548Z,39.30
2018-05-12T13:24:44.805Z,39.40
2018-05-12T13:27:13.049Z,41.60
2018-05-12T13:29:41.317Z,40.00
2018-05-12T13:32:09.591Z,40.70
2018-05-12T13:34:38.259Z,41.90
2018-05-12T13:37:07.272Z,42.50
2018-05-12T13:39:35.541Z,42.50
2018-05-12T13:42:03.800Z,39.60
2018-05-12T13:44:32.089Z,38.90
2018-05-12T13:47:02.035Z,38.40
2018-05-12T13:49:30.288Z,38.40
2018-05-12T13:51:58.543Z,37.80
2018-05-12T13:54:27.606Z,37.70
2018-05-12T13:56:55.877Z,37.50
2018-05-12T13:59:24.119Z,36.60
2018-05-12T14:01:52.380Z,38.90
2018-05-12T14:04:21.395Z,38.40
2018-05-12T14:06:49.648Z,38.30
2018-05-12T14:09:18.661Z,38.00
2018-05-12T14:11:46.911Z,37.90
2018-05-12T14:14:15.930Z,39.00
2018-05-12T14:16:44.182Z,39.00
2018-05-12T14:19:13.204Z,37.70
2018-05-12T14:21:41.480Z,37.60
2018-05-12T14:24:10.537Z,36.50
2018-05-12T14:26:39.563Z,37.80
2018-05-12T14:29:07.893Z,37.70
2018-05-12T14:31:36.160Z,38.00
2018-05-12T14:34:04.667Z,37.80
2018-05-12T14:36:32.914Z,37.20
2018-05-12T14:39:01.174Z,36.60
2018-05-12T14:41:29.479Z,37.70
2018-05-12T14:43:57.728Z,38.00
2018-05-12T14:46:26.738Z,37.90
2018-05-12T14:48:55.042Z,37.90
2018-05-12T14:51:24.059Z,36.90
2018-05-12T14:53:52.312Z,36.90
2018-05-12T14:56:21.332Z,39.90
2018-05-12T14:58:49.638Z,39.90
2018-05-12T15:01:17.896Z,40.30
2018-05-12T15:03:46.136Z,39.00
2018-05-12T15:06:15.167Z,40.90
2018-05-12T15:08:43.420Z,40.90
2018-05-12T15:11:11.677Z,40.60
2018-05-12T15:13:40.748Z,42.50
2018-05-12T15:16:09.016Z,42.40
2018-05-12T15:18:37.286Z,41.40
2018-05-12T15:21:07.003Z,42.10
2018-05-12T15:23:35.253Z,40.80
2018-05-12T15:26:03.521Z,41.70
2018-05-12T15:28:31.802Z,41.60
2018-05-12T15:31:00.056Z,41.00
2018-05-12T15:33:28.344Z,41.10
2018-05-12T15:35:56.634Z,41.50
2018-05-12T15:38:24.907Z,41.30
2018-05-12T15:40:53.361Z,42.20
2018-05-12T15:43:22.419Z,42.00
2018-05-12T15:45:50.778Z,42.00
2018-05-12T15:48:19.080Z,42.60
2018-05-12T15:50:47.430Z,42.10
2018-05-12T15:53:15.675Z,43.40
2018-05-12T15:55:43.923Z,44.00
2018-05-12T15:58:12.975Z,44.10
2018-05-12T16:00:41.294Z,44.00
2018-05-12T16:03:10.384Z,44.00
2018-05-12T16:05:38.591Z,44.00
2018-05-12T16:08:06.836Z,43.50
2018-05-12T16:10:35.854Z,43.70
2018-05-12T16:13:04.120Z,43.70
2018-05-12T16:15:32.395Z,43.80
2018-05-12T16:18:00.674Z,43.70
2018-05-12T16:20:28.964Z,43.90
2018-05-12T16:22:57.952Z,43.40
2018-05-12T16:25:26.208Z,43.40
2018-05-12T16:27:55.243Z,44.70
2018-05-12T16:30:24.515Z,44.70
2018-05-12T16:32:52.782Z,44.20
2018-05-12T16:35:21.800Z,45.30
2018-05-12T16:37:50.057Z,45.30
2018-05-12T16:40:18.309Z,45.20
2018-05-12T16:42:47.365Z,44.90
2018-05-12T16:45:15.634Z,44.90
2018-05-12T16:47:43.883Z,45.50
2018-05-12T16:50:13.081Z,45.00
2018-05-12T16:52:41.289Z,45.60
2018-05-12T16:55:09.540Z,44.80
2018-05-12T16:57:37.804Z,44.70
2018-05-12T17:00:06.050Z,45.00
2018-05-12T17:02:35.074Z,45.10
2018-05-12T17:05:03.322Z,45.50
2018-05-12T17:07:32.344Z,46.80
2018-05-12T17:10:00.600Z,46.70
2018-05-12T17:12:28.972Z,47.30
2018-05-12T17:14:57.145Z,47.70
2018-05-12T17:17:26.174Z,47.20
2018-05-12T17:19:54.423Z,47.10
2018-05-12T17:22:23.425Z,47.90
2018-05-12T17:24:52.429Z,47.90
2018-05-12T17:27:20.745Z,47.90
2018-05-12T17:29:49.788Z,48.60
2018-05-12T17:32:17.981Z,48.60
2018-05-12T17:34:46.232Z,49.10
2018-05-12T17:37:15.278Z,49.30
2018-05-12T17:39:43.539Z,49.20
2018-05-12T17:42:11.789Z,50.20
2018-05-12T17:44:40.033Z,50.20
2018-05-12T17:47:08.301Z,51.10
2018-05-12T17:49:36.535Z,51.10
2018-05-12T17:52:04.788Z,51.90
2018-05-12T17:54:33.041Z,53.10
2018-05-12T17:57:01.273Z,53.50
2018-05-12T17:59:29.532Z,54.40
2018-05-12T18:01:57.781Z,55.90
2018-05-12T18:04:26.823Z,56.10
2018-05-12T18:06:55.072Z,56.10
2018-05-12T18:09:23.316Z,56.40
2018-05-12T18:11:52.402Z,58.10
2018-05-12T18:14:20.638Z,57.60
2018-05-12T18:16:48.878Z,57.60
2018-05-12T18:19:17.138Z,58.30
2018-05-12T18:21:46.161Z,59.90
2018-05-12T18:24:14.414Z,59.90
2018-05-12T18:26:43.441Z,62.70
2018-05-12T18:29:11.683Z,62.60
2018-05-12T18:31:40.702Z,63.70
2018-05-12T18:34:08.950Z,63.70
2018-05-12T18:36:37.958Z,65.20
2018-05-12T18:39:06.211Z,65.10
2018-05-12T18:41:35.247Z,67.70
2018-05-12T18:44:03.534Z,67.60
2018-05-12T18:46:31.798Z,70.20
2018-05-12T18:49:00.039Z,71.10
2018-05-12T18:51:28.937Z,71.40
2018-05-12T18:53:57.982Z,71.90
2018-05-12T18:56:26.210Z,71.90
2018-05-12T18:58:54.468Z,72.00
2018-05-12T19:01:22.723Z,72.40
2018-05-12T19:03:50.967Z,71.90
2018-05-12T19:06:19.233Z,73.10
2018-05-12T19:08:47.497Z,74.40
2018-05-12T19:11:15.774Z,78.30
2018-05-12T19:13:44.047Z,79.30
2018-05-12T19:16:12.293Z,79.90
2018-05-12T19:18:40.539Z,76.90
2018-05-12T19:21:08.797Z,77.80
2018-05-12T19:23:37.109Z,78.70
2018-05-12T19:26:05.365Z,78.90
2018-05-12T19:28:33.615Z,79.60
2018-05-12T19:31:01.918Z,82.20
2018-05-12T19:33:30.144Z,83.90
2018-05-12T19:35:58.422Z,85.00
2018-05-12T19:38:27.473Z,88.00
2018-05-12T19:40:55.731Z,88.00
2018-05-12T19:43:23.986Z,88.70
2018-05-12T19:45:52.231Z,90.00
2018-05-12T19:48:21.266Z,90.90
2018-05-12T19:50:50.365Z,90.90
2018-05-12T19:53:18.664Z,91.10
2018-05-12T19:55:46.909Z,91.00
2018-05-12T19:58:15.162Z,91.70
2018-05-12T20:00:43.423Z,90.00
2018-05-12T20:03:12.460Z,93.20
2018-05-12T20:05:40.724Z,93.10
2018-05-12T20:08:08.997Z,93.50
2018-05-12T20:10:37.257Z,94.00
2018-05-12T20:13:06.318Z,95.20
2018-05-12T20:15:35.390Z,95.60
2018-05-12T20:18:03.643Z,95.50
2018-05-12T20:20:31.895Z,95.80
2018-05-12T20:23:00.167Z,95.80
2018-05-12T20:25:29.193Z,96.00
2018-05-12T20:27:57.460Z,96.00
2018-05-12T20:30:25.713Z,95.70
2018-05-12T20:32:54.725Z,95.60
2018-05-12T20:35:22.978Z,95.50
2018-05-12T20:37:52.000Z,95.20
2018-05-12T20:40:20.256Z,95.20
2018-05-12T20:42:49.281Z,94.00
2018-05-12T20:45:17.536Z,94.00
2018-05-12T20:47:45.800Z,94.00
2018-05-12T20:50:14.061Z,94.50
2018-05-12T20:52:43.094Z,95.00
2018-05-12T20:55:11.333Z,95.00
2018-05-12T20:57:40.391Z,96.90
2018-05-12T21:00:08.771Z,96.90
2018-05-12T21:02:37.027Z,96.60
2018-05-12T21:05:05.292Z,96.50
2018-05-12T21:07:34.445Z,96.60
2018-05-12T21:10:03.464Z,96.80
2018-05-12T21:12:31.717Z,96.70
2018-05-12T21:15:00.745Z,97.60
2018-05-12T21:17:29.013Z,97.60
2018-05-12T21:19:57.266Z,97.70
2018-05-12T21:22:26.323Z,99.10
2018-05-12T21:24:54.586Z,99.20
2018-05-12T21:27:22.837Z,99.60
2018-05-12T21:29:51.115Z,99.90
2018-05-12T21:32:19.384Z,99.90
2018-05-12T21:34:47.665Z,99.90
2018-05-12T21:37:16.080Z,99.90
2018-05-12T21:39:44.487Z,99.90
2018-05-12T21:42:13.836Z,99.90
2018-05-12T21:44:42.138Z,99.90
2018-05-12T21:47:10.376Z,99.90
2018-05-12T21:49:38.643Z,99.90
2018-05-12T21:52:06.905Z,99.90
2018-05-12T21:54:35.914Z,99.90
2018-05-12T21:57:04.167Z,99.90
2018-05-12T21:59:33.196Z,99.90
2018-05-12T22:02:01.449Z,99.90
2018-05-12T22:04:29.726Z,99.90
2018-05-12T22:06:58.755Z,99.90
2018-05-12T22:09:27.006Z,99.90
2018-05-12T22:11:55.283Z,99.90
2018-05-12T22:14:23.579Z,99.90
2018-05-12T22:16:51.829Z,99.90
2018-05-12T22:19:20.150Z,99.90
2018-05-12T22:21:48.406Z,99.90
2018-05-12T22:24:16.675Z,99.90
2018-05-12T22:26:44.948Z,99.90
2018-05-12T22:29:13.206Z,99.90
2018-05-12T22:31:42.387Z,99.90
2018-05-12T22:34:10.837Z,99.90
2018-05-12T22:36:39.152Z,99.90
2018-05-12T22:39:07.436Z,99.90
2018-05-12T22:41:36.548Z,99.90
2018-05-12T22:44:04.832Z,99.90
2018-05-12T22:46:33.262Z,99.90
2018-05-12T22:49:01.541Z,99.90
2018-05-12T22:51:31.366Z,99.90
2018-05-12T22:53:59.619Z,99.90
2018-05-12T22:56:27.907Z,99.90
2018-05-12T22:58:56.160Z,99.90
2018-05-12T23:01:24.400Z,99.90
2018-05-12T23:03:52.703Z,99.90
2018-05-12T23:06:20.957Z,99.90
2018-05-12T23:08:49.221Z,99.90
2018-05-12T23:11:17.481Z,99.90
2018-05-12T23:13:46.507Z,99.90
2018-05-12T23:16:14.762Z,99.90
2018-05-12T23:18:43.038Z,99.90
2018-05-12T23:21:11.299Z,99.90
2018-05-12T23:23:40.311Z,99.90
2018-05-12T23:26:08.570Z,99.90
2018-05-12T23:28:37.598Z,99.90
2018-05-12T23:31:05.794Z,99.90
2018-05-12T23:33:34.084Z,99.90
2018-05-12T23:36:02.338Z,99.90
2018-05-12T23:38:30.590Z,99.90
2018-05-12T23:40:58.846Z,99.90
2018-05-12T23:43:27.122Z,99.90
2018-05-12T23:45:56.174Z,99.90
2018-05-12T23:48:24.457Z,99.90
2018-05-12T23:50:52.704Z,99.90
2018-05-12T23:53:21.010Z,99.90
2018-05-12T23:55:49.289Z,99.90
2018-05-12T23:58:17.548Z,99.90
